sensor_id;sensor_type;location;lat;lon;timestamp;P1;durP1;ratioP1;P2;durP2;ratioP2
9819;SDS011;4949;48.482;9.206;2022-11-20T00:04:59;2.70;;;2.30;;
9819;SDS011;4949;48.482;9.206;2022-11-20T00:10:02;3.63;;;2.60;;
9819;SDS011;4949;48.482;9.206;2022-11-20T00:15:09;2.70;;;2.50;;
9819;SDS011;4949;48.482;9.206;2022-11-20T00:20:12;2.53;;;2.33;;
9819;SDS011;4949;48.482;9.206;2022-11-20T00:25:13;4.27;;;2.83;;
9819;SDS011;4949;48.482;9.206;2022-11-20T00:30:16;3.70;;;2.70;;
9819;SDS011;4949;48.482;9.206;2022-11-20T00:35:17;3.60;;;3.30;;
9819;SDS011;4949;48.482;9.206;2022-11-20T00:40:20;3.10;;;2.90;;
9819;SDS011;4949;48.482;9.206;2022-11-20T00:45:20;3.40;;;3.10;;
9819;SDS011;4949;48.482;9.206;2022-11-20T00:50:26;3.70;;;3.20;;
9819;SDS011;4949;48.482;9.206;2022-11-20T00:55:29;3.47;;;3.17;;
9819;SDS011;4949;48.482;9.206;2022-11-20T01:00:34;3.73;;;3.50;;
9819;SDS011;4949;48.482;9.206;2022-11-20T01:05:35;4.00;;;3.23;;
9819;SDS011;4949;48.482;9.206;2022-11-20T01:10:36;4.20;;;3.80;;
9819;SDS011;4949;48.482;9.206;2022-11-20T01:15:41;4.20;;;3.80;;
9819;SDS011;4949;48.482;9.206;2022-11-20T01:20:45;4.20;;;3.70;;
9819;SDS011;4949;48.482;9.206;2022-11-20T01:25:45;4.20;;;3.77;;
9819;SDS011;4949;48.482;9.206;2022-11-20T01:30:48;3.60;;;3.30;;
9819;SDS011;4949;48.482;9.206;2022-11-20T01:35:49;4.13;;;3.83;;
9819;SDS011;4949;48.482;9.206;2022-11-20T01:40:55;4.03;;;3.70;;
9819;SDS011;4949;48.482;9.206;2022-11-20T01:51:28;5.30;;;3.47;;
9819;SDS011;4949;48.482;9.206;2022-11-20T01:56:37;4.30;;;3.40;;
9819;SDS011;4949;48.482;9.206;2022-11-20T02:01:41;4.47;;;3.77;;
9819;SDS011;4949;48.482;9.206;2022-11-20T02:06:45;3.27;;;3.00;;
9819;SDS011;4949;48.482;9.206;2022-11-20T02:11:52;2.67;;;2.47;;
9819;SDS011;4949;48.482;9.206;2022-11-20T02:16:54;5.40;;;3.37;;
9819;SDS011;4949;48.482;9.206;2022-11-20T02:27:10;2.70;;;2.50;;
9819;SDS011;4949;48.482;9.206;2022-11-20T02:32:20;3.37;;;2.70;;
9819;SDS011;4949;48.482;9.206;2022-11-20T02:37:30;2.90;;;2.57;;
9819;SDS011;4949;48.482;9.206;2022-11-20T02:42:36;3.30;;;2.23;;
9819;SDS011;4949;48.482;9.206;2022-11-20T02:47:37;3.40;;;2.83;;
9819;SDS011;4949;48.482;9.206;2022-11-20T02:52:40;3.30;;;2.97;;
9819;SDS011;4949;48.482;9.206;2022-11-20T02:57:41;2.83;;;2.63;;
9819;SDS011;4949;48.482;9.206;2022-11-20T03:02:45;3.03;;;2.40;;
9819;SDS011;4949;48.482;9.206;2022-11-20T03:07:45;2.50;;;2.17;;
9819;SDS011;4949;48.482;9.206;2022-11-20T03:12:46;2.97;;;2.67;;
9819;SDS011;4949;48.482;9.206;2022-11-20T03:17:47;2.70;;;2.50;;
9819;SDS011;4949;48.482;9.206;2022-11-20T03:22:48;2.77;;;2.33;;
9819;SDS011;4949;48.482;9.206;2022-11-20T03:27:48;2.60;;;2.30;;
9819;SDS011;4949;48.482;9.206;2022-11-20T03:32:52;2.23;;;2.10;;
9819;SDS011;4949;48.482;9.206;2022-11-20T03:37:53;3.97;;;2.30;;
9819;SDS011;4949;48.482;9.206;2022-11-20T03:42:56;2.50;;;2.30;;
9819;SDS011;4949;48.482;9.206;2022-11-20T03:47:57;3.03;;;2.73;;
9819;SDS011;4949;48.482;9.206;2022-11-20T03:52:58;2.50;;;2.30;;
9819;SDS011;4949;48.482;9.206;2022-11-20T03:58:01;4.93;;;2.50;;
9819;SDS011;4949;48.482;9.206;2022-11-20T04:03:02;3.00;;;2.40;;
9819;SDS011;4949;48.482;9.206;2022-11-20T04:08:07;2.63;;;2.43;;
9819;SDS011;4949;48.482;9.206;2022-11-20T04:13:08;2.27;;;2.17;;
9819;SDS011;4949;48.482;9.206;2022-11-20T04:18:08;3.90;;;2.80;;
9819;SDS011;4949;48.482;9.206;2022-11-20T04:23:09;2.10;;;1.90;;
9819;SDS011;4949;48.482;9.206;2022-11-20T04:28:10;2.10;;;1.90;;
9819;SDS011;4949;48.482;9.206;2022-11-20T04:33:13;4.90;;;2.30;;
9819;SDS011;4949;48.482;9.206;2022-11-20T04:38:14;2.40;;;2.20;;
9819;SDS011;4949;48.482;9.206;2022-11-20T04:43:17;2.27;;;2.10;;
9819;SDS011;4949;48.482;9.206;2022-11-20T04:48:18;3.93;;;2.37;;
9819;SDS011;4949;48.482;9.206;2022-11-20T04:53:19;2.03;;;1.80;;
9819;SDS011;4949;48.482;9.206;2022-11-20T04:58:20;2.13;;;1.93;;
9819;SDS011;4949;48.482;9.206;2022-11-20T05:03:22;3.17;;;2.30;;
9819;SDS011;4949;48.482;9.206;2022-11-20T05:08:23;1.80;;;1.70;;
9819;SDS011;4949;48.482;9.206;2022-11-20T05:13:24;2.87;;;2.00;;
9819;SDS011;4949;48.482;9.206;2022-11-20T05:18:24;2.47;;;2.27;;
9819;SDS011;4949;48.482;9.206;2022-11-20T05:23:25;2.20;;;2.00;;
9819;SDS011;4949;48.482;9.206;2022-11-20T05:28:27;1.90;;;1.80;;
9819;SDS011;4949;48.482;9.206;2022-11-20T05:33:29;2.00;;;1.90;;
9819;SDS011;4949;48.482;9.206;2022-11-20T05:38:34;1.87;;;1.77;;
9819;SDS011;4949;48.482;9.206;2022-11-20T05:43:38;2.40;;;2.20;;
9819;SDS011;4949;48.482;9.206;2022-11-20T05:48:41;1.80;;;1.70;;
9819;SDS011;4949;48.482;9.206;2022-11-20T05:53:43;2.73;;;1.90;;
9819;SDS011;4949;48.482;9.206;2022-11-20T05:58:45;2.40;;;1.60;;
9819;SDS011;4949;48.482;9.206;2022-11-20T06:03:46;2.03;;;1.60;;
9819;SDS011;4949;48.482;9.206;2022-11-20T06:08:49;2.20;;;2.00;;
9819;SDS011;4949;48.482;9.206;2022-11-20T06:13:52;2.10;;;1.93;;
9819;SDS011;4949;48.482;9.206;2022-11-20T06:18:55;2.00;;;1.90;;
9819;SDS011;4949;48.482;9.206;2022-11-20T06:23:58;2.50;;;2.10;;
9819;SDS011;4949;48.482;9.206;2022-11-20T06:28:59;2.27;;;2.10;;
9819;SDS011;4949;48.482;9.206;2022-11-20T06:34:02;2.33;;;2.00;;
9819;SDS011;4949;48.482;9.206;2022-11-20T06:39:05;2.30;;;2.10;;
9819;SDS011;4949;48.482;9.206;2022-11-20T06:44:06;1.90;;;1.80;;
9819;SDS011;4949;48.482;9.206;2022-11-20T06:49:06;2.40;;;2.00;;
9819;SDS011;4949;48.482;9.206;2022-11-20T06:54:09;2.30;;;2.10;;
9819;SDS011;4949;48.482;9.206;2022-11-20T06:59:10;3.10;;;1.90;;
9819;SDS011;4949;48.482;9.206;2022-11-20T07:04:16;2.43;;;2.23;;
9819;SDS011;4949;48.482;9.206;2022-11-20T07:09:21;2.33;;;2.13;;
9819;SDS011;4949;48.482;9.206;2022-11-20T07:14:22;2.17;;;2.07;;
9819;SDS011;4949;48.482;9.206;2022-11-20T07:19:27;2.10;;;2.00;;
9819;SDS011;4949;48.482;9.206;2022-11-20T07:24:30;2.20;;;2.00;;
9819;SDS011;4949;48.482;9.206;2022-11-20T07:29:31;3.23;;;2.60;;
9819;SDS011;4949;48.482;9.206;2022-11-20T07:34:31;1.90;;;1.70;;
9819;SDS011;4949;48.482;9.206;2022-11-20T07:39:34;2.00;;;1.70;;
9819;SDS011;4949;48.482;9.206;2022-11-20T07:44:35;1.87;;;1.77;;
9819;SDS011;4949;48.482;9.206;2022-11-20T07:49:36;1.87;;;1.63;;
9819;SDS011;4949;48.482;9.206;2022-11-20T07:54:39;1.60;;;1.50;;
9819;SDS011;4949;48.482;9.206;2022-11-20T07:59:42;1.90;;;1.80;;
9819;SDS011;4949;48.482;9.206;2022-11-20T08:04:43;1.60;;;1.50;;
9819;SDS011;4949;48.482;9.206;2022-11-20T08:09:43;1.50;;;1.40;;
9819;SDS011;4949;48.482;9.206;2022-11-20T08:14:44;2.10;;;1.60;;
9819;SDS011;4949;48.482;9.206;2022-11-20T08:19:47;1.70;;;1.60;;
9819;SDS011;4949;48.482;9.206;2022-11-20T08:24:48;1.63;;;1.53;;
9819;SDS011;4949;48.482;9.206;2022-11-20T08:29:49;3.73;;;1.60;;
9819;SDS011;4949;48.482;9.206;2022-11-20T08:34:52;1.73;;;1.63;;
9819;SDS011;4949;48.482;9.206;2022-11-20T08:39:52;1.67;;;1.57;;
9819;SDS011;4949;48.482;9.206;2022-11-20T08:44:54;1.40;;;1.30;;
9819;SDS011;4949;48.482;9.206;2022-11-20T08:49:57;1.87;;;1.77;;
9819;SDS011;4949;48.482;9.206;2022-11-20T08:55:01;1.67;;;1.57;;
9819;SDS011;4949;48.482;9.206;2022-11-20T09:00:09;1.70;;;1.60;;
9819;SDS011;4949;48.482;9.206;2022-11-20T09:05:11;1.50;;;1.40;;
9819;SDS011;4949;48.482;9.206;2022-11-20T09:10:12;1.90;;;1.80;;
9819;SDS011;4949;48.482;9.206;2022-11-20T09:15:12;1.53;;;1.43;;
9819;SDS011;4949;48.482;9.206;2022-11-20T09:20:16;1.70;;;1.60;;
9819;SDS011;4949;48.482;9.206;2022-11-20T09:25:19;1.60;;;1.50;;
9819;SDS011;4949;48.482;9.206;2022-11-20T09:30:22;2.07;;;1.70;;
9819;SDS011;4949;48.482;9.206;2022-11-20T09:35:23;1.90;;;1.70;;
9819;SDS011;4949;48.482;9.206;2022-11-20T09:40:25;1.83;;;1.73;;
9819;SDS011;4949;48.482;9.206;2022-11-20T09:51:30;1.73;;;1.63;;
9819;SDS011;4949;48.482;9.206;2022-11-20T09:56:36;2.00;;;1.90;;
9819;SDS011;4949;48.482;9.206;2022-11-20T10:01:43;1.90;;;1.80;;
9819;SDS011;4949;48.482;9.206;2022-11-20T10:32:57;1.90;;;1.80;;
9819;SDS011;4949;48.482;9.206;2022-11-20T10:38:28;1.63;;;1.53;;
9819;SDS011;4949;48.482;9.206;2022-11-20T10:43:42;1.90;;;1.80;;
9819;SDS011;4949;48.482;9.206;2022-11-20T10:48:44;2.40;;;2.30;;
9819;SDS011;4949;48.482;9.206;2022-11-20T10:54:07;2.10;;;1.90;;
9819;SDS011;4949;48.482;9.206;2022-11-20T11:05:05;4.30;;;1.40;;
9819;SDS011;4949;48.482;9.206;2022-11-20T11:10:28;1.80;;;1.70;;
9819;SDS011;4949;48.482;9.206;2022-11-20T11:15:44;1.93;;;1.83;;
9819;SDS011;4949;48.482;9.206;2022-11-20T11:20:49;1.93;;;1.83;;
9819;SDS011;4949;48.482;9.206;2022-11-20T11:25:56;1.60;;;1.50;;
9819;SDS011;4949;48.482;9.206;2022-11-20T11:30:59;1.87;;;1.70;;
9819;SDS011;4949;48.482;9.206;2022-11-20T11:36:01;2.00;;;1.80;;
9819;SDS011;4949;48.482;9.206;2022-11-20T11:41:06;2.20;;;2.00;;
9819;SDS011;4949;48.482;9.206;2022-11-20T11:51:20;2.00;;;1.90;;
9819;SDS011;4949;48.482;9.206;2022-11-20T11:56:21;1.63;;;1.53;;
9819;SDS011;4949;48.482;9.206;2022-11-20T12:06:52;2.37;;;1.80;;
9819;SDS011;4949;48.482;9.206;2022-11-20T12:12:14;1.90;;;1.80;;
9819;SDS011;4949;48.482;9.206;2022-11-20T12:17:23;1.70;;;1.60;;
9819;SDS011;4949;48.482;9.206;2022-11-20T12:43:21;2.00;;;1.60;;
9819;SDS011;4949;48.482;9.206;2022-11-20T12:48:47;2.63;;;2.03;;
9819;SDS011;4949;48.482;9.206;2022-11-20T13:21:54;3.20;;;2.20;;
9819;SDS011;4949;48.482;9.206;2022-11-20T13:37:25;2.47;;;2.27;;
9819;SDS011;4949;48.482;9.206;2022-11-20T13:43:01;2.43;;;2.23;;
9819;SDS011;4949;48.482;9.206;2022-11-20T13:48:03;3.10;;;2.33;;
9819;SDS011;4949;48.482;9.206;2022-11-20T14:04:29;1.70;;;1.60;;
9819;SDS011;4949;48.482;9.206;2022-11-20T14:09:35;1.97;;;1.80;;
9819;SDS011;4949;48.482;9.206;2022-11-20T14:14:46;2.17;;;1.77;;
9819;SDS011;4949;48.482;9.206;2022-11-20T14:19:50;2.00;;;1.33;;
9819;SDS011;4949;48.482;9.206;2022-11-20T14:30:12;1.60;;;1.50;;
9819;SDS011;4949;48.482;9.206;2022-11-20T14:35:30;1.73;;;1.60;;
9819;SDS011;4949;48.482;9.206;2022-11-20T14:40:40;1.70;;;1.60;;
9819;SDS011;4949;48.482;9.206;2022-11-20T14:45:42;1.70;;;1.60;;
9819;SDS011;4949;48.482;9.206;2022-11-20T14:50:45;2.47;;;1.80;;
9819;SDS011;4949;48.482;9.206;2022-11-20T14:55:53;1.83;;;1.73;;
9819;SDS011;4949;48.482;9.206;2022-11-20T15:00:58;2.30;;;1.80;;
9819;SDS011;4949;48.482;9.206;2022-11-20T15:06:02;2.20;;;1.90;;
9819;SDS011;4949;48.482;9.206;2022-11-20T15:11:14;2.27;;;2.07;;
9819;SDS011;4949;48.482;9.206;2022-11-20T15:16:30;2.90;;;2.13;;
9819;SDS011;4949;48.482;9.206;2022-11-20T15:21:36;2.30;;;2.10;;
9819;SDS011;4949;48.482;9.206;2022-11-20T15:26:36;2.50;;;2.30;;
9819;SDS011;4949;48.482;9.206;2022-11-20T15:31:41;2.27;;;2.07;;
9819;SDS011;4949;48.482;9.206;2022-11-20T15:36:45;3.07;;;2.57;;
9819;SDS011;4949;48.482;9.206;2022-11-20T15:41:48;3.63;;;2.50;;
9819;SDS011;4949;48.482;9.206;2022-11-20T15:46:49;3.43;;;3.13;;
9819;SDS011;4949;48.482;9.206;2022-11-20T15:51:52;4.10;;;2.80;;
9819;SDS011;4949;48.482;9.206;2022-11-20T15:56:53;2.23;;;2.03;;
9819;SDS011;4949;48.482;9.206;2022-11-20T16:01:54;2.03;;;1.93;;
9819;SDS011;4949;48.482;9.206;2022-11-20T16:06:55;2.27;;;1.60;;
9819;SDS011;4949;48.482;9.206;2022-11-20T16:11:58;2.43;;;1.90;;
9819;SDS011;4949;48.482;9.206;2022-11-20T16:17:02;2.27;;;2.07;;
9819;SDS011;4949;48.482;9.206;2022-11-20T16:22:03;4.30;;;1.97;;
9819;SDS011;4949;48.482;9.206;2022-11-20T16:27:06;2.10;;;2.00;;
9819;SDS011;4949;48.482;9.206;2022-11-20T16:32:10;2.23;;;1.83;;
9819;SDS011;4949;48.482;9.206;2022-11-20T16:37:16;2.00;;;1.83;;
9819;SDS011;4949;48.482;9.206;2022-11-20T16:42:16;2.60;;;2.30;;
9819;SDS011;4949;48.482;9.206;2022-11-20T16:47:19;3.13;;;2.50;;
9819;SDS011;4949;48.482;9.206;2022-11-20T16:52:23;1.67;;;1.57;;
9819;SDS011;4949;48.482;9.206;2022-11-20T16:57:29;1.60;;;1.50;;
9819;SDS011;4949;48.482;9.206;2022-11-20T17:02:32;2.47;;;1.90;;
9819;SDS011;4949;48.482;9.206;2022-11-20T17:07:39;1.70;;;1.60;;
9819;SDS011;4949;48.482;9.206;2022-11-20T17:12:40;1.90;;;1.80;;
9819;SDS011;4949;48.482;9.206;2022-11-20T17:17:40;1.70;;;1.60;;
9819;SDS011;4949;48.482;9.206;2022-11-20T17:22:44;1.57;;;1.47;;
9819;SDS011;4949;48.482;9.206;2022-11-20T17:27:47;2.27;;;1.60;;
9819;SDS011;4949;48.482;9.206;2022-11-20T17:32:51;1.70;;;1.60;;
9819;SDS011;4949;48.482;9.206;2022-11-20T17:38:08;1.97;;;1.80;;
9819;SDS011;4949;48.482;9.206;2022-11-20T17:43:12;2.23;;;2.03;;
9819;SDS011;4949;48.482;9.206;2022-11-20T17:48:13;2.47;;;2.10;;
9819;SDS011;4949;48.482;9.206;2022-11-20T17:53:16;1.93;;;1.73;;
9819;SDS011;4949;48.482;9.206;2022-11-20T17:58:20;1.40;;;1.30;;
9819;SDS011;4949;48.482;9.206;2022-11-20T18:03:22;1.50;;;1.40;;
9819;SDS011;4949;48.482;9.206;2022-11-20T18:08:26;1.60;;;1.50;;
9819;SDS011;4949;48.482;9.206;2022-11-20T18:13:27;1.40;;;1.30;;
9819;SDS011;4949;48.482;9.206;2022-11-20T18:18:47;1.90;;;1.80;;
9819;SDS011;4949;48.482;9.206;2022-11-20T18:23:48;1.77;;;1.67;;
9819;SDS011;4949;48.482;9.206;2022-11-20T18:28:52;4.03;;;3.13;;
9819;SDS011;4949;48.482;9.206;2022-11-20T18:33:58;1.67;;;1.57;;
9819;SDS011;4949;48.482;9.206;2022-11-20T18:39:00;1.60;;;1.50;;
9819;SDS011;4949;48.482;9.206;2022-11-20T18:44:03;1.43;;;1.33;;
9819;SDS011;4949;48.482;9.206;2022-11-20T18:49:31;1.43;;;1.33;;
9819;SDS011;4949;48.482;9.206;2022-11-20T18:54:33;1.73;;;1.63;;
9819;SDS011;4949;48.482;9.206;2022-11-20T19:00:01;1.67;;;1.57;;
9819;SDS011;4949;48.482;9.206;2022-11-20T19:05:18;1.60;;;1.50;;
9819;SDS011;4949;48.482;9.206;2022-11-20T19:10:22;1.50;;;1.40;;
9819;SDS011;4949;48.482;9.206;2022-11-20T19:15:23;1.43;;;1.33;;
9819;SDS011;4949;48.482;9.206;2022-11-20T19:20:26;1.87;;;1.77;;
9819;SDS011;4949;48.482;9.206;2022-11-20T19:25:29;1.60;;;1.50;;
9819;SDS011;4949;48.482;9.206;2022-11-20T19:30:31;1.90;;;1.70;;
9819;SDS011;4949;48.482;9.206;2022-11-20T19:35:34;2.10;;;1.90;;
9819;SDS011;4949;48.482;9.206;2022-11-20T19:40:37;1.53;;;1.43;;
9819;SDS011;4949;48.482;9.206;2022-11-20T19:45:38;1.90;;;1.70;;
9819;SDS011;4949;48.482;9.206;2022-11-20T19:50:39;3.10;;;1.70;;
9819;SDS011;4949;48.482;9.206;2022-11-20T19:55:40;2.10;;;1.90;;
9819;SDS011;4949;48.482;9.206;2022-11-20T20:00:42;1.93;;;1.83;;
9819;SDS011;4949;48.482;9.206;2022-11-20T20:05:42;1.60;;;1.50;;
9819;SDS011;4949;48.482;9.206;2022-11-20T20:10:43;1.83;;;1.70;;
9819;SDS011;4949;48.482;9.206;2022-11-20T20:15:46;2.03;;;1.87;;
9819;SDS011;4949;48.482;9.206;2022-11-20T20:20:56;1.60;;;1.50;;
9819;SDS011;4949;48.482;9.206;2022-11-20T20:26:20;1.70;;;1.60;;
9819;SDS011;4949;48.482;9.206;2022-11-20T20:31:24;1.50;;;1.40;;
9819;SDS011;4949;48.482;9.206;2022-11-20T20:36:43;1.80;;;1.57;;
9819;SDS011;4949;48.482;9.206;2022-11-20T20:41:52;1.70;;;1.60;;
9819;SDS011;4949;48.482;9.206;2022-11-20T20:46:52;1.57;;;1.47;;
9819;SDS011;4949;48.482;9.206;2022-11-20T20:51:58;1.53;;;1.43;;
9819;SDS011;4949;48.482;9.206;2022-11-20T20:57:07;1.50;;;1.40;;
9819;SDS011;4949;48.482;9.206;2022-11-20T21:02:20;1.43;;;1.33;;
9819;SDS011;4949;48.482;9.206;2022-11-20T21:07:27;1.43;;;1.33;;
9819;SDS011;4949;48.482;9.206;2022-11-20T21:12:31;1.20;;;1.10;;
9819;SDS011;4949;48.482;9.206;2022-11-20T21:17:35;1.30;;;1.20;;
9819;SDS011;4949;48.482;9.206;2022-11-20T21:22:37;1.57;;;1.40;;
9819;SDS011;4949;48.482;9.206;2022-11-20T21:27:38;1.07;;;1.03;;
9819;SDS011;4949;48.482;9.206;2022-11-20T21:32:41;1.40;;;1.30;;
9819;SDS011;4949;48.482;9.206;2022-11-20T21:37:42;1.33;;;1.23;;
9819;SDS011;4949;48.482;9.206;2022-11-20T21:42:43;1.30;;;1.20;;
9819;SDS011;4949;48.482;9.206;2022-11-20T21:47:48;1.30;;;1.20;;
9819;SDS011;4949;48.482;9.206;2022-11-20T21:52:52;2.27;;;1.50;;
9819;SDS011;4949;48.482;9.206;2022-11-20T21:57:53;1.30;;;1.20;;
9819;SDS011;4949;48.482;9.206;2022-11-20T22:02:54;1.30;;;1.20;;
9819;SDS011;4949;48.482;9.206;2022-11-20T22:07:55;1.20;;;1.20;;
9819;SDS011;4949;48.482;9.206;2022-11-20T22:12:55;3.57;;;1.30;;
9819;SDS011;4949;48.482;9.206;2022-11-20T22:18:16;1.40;;;1.30;;
9819;SDS011;4949;48.482;9.206;2022-11-20T22:23:17;1.37;;;1.27;;
9819;SDS011;4949;48.482;9.206;2022-11-20T22:28:17;1.60;;;1.50;;
9819;SDS011;4949;48.482;9.206;2022-11-20T22:33:18;1.40;;;1.30;;
9819;SDS011;4949;48.482;9.206;2022-11-20T22:38:22;1.50;;;1.40;;
9819;SDS011;4949;48.482;9.206;2022-11-20T22:43:29;2.00;;;1.80;;
9819;SDS011;4949;48.482;9.206;2022-11-20T22:48:30;1.70;;;1.60;;
9819;SDS011;4949;48.482;9.206;2022-11-20T22:53:33;4.67;;;1.80;;
9819;SDS011;4949;48.482;9.206;2022-11-20T22:58:34;1.90;;;1.50;;
9819;SDS011;4949;48.482;9.206;2022-11-20T23:03:40;1.30;;;1.20;;
9819;SDS011;4949;48.482;9.206;2022-11-20T23:08:45;1.40;;;1.30;;
9819;SDS011;4949;48.482;9.206;2022-11-20T23:13:46;1.70;;;1.40;;
9819;SDS011;4949;48.482;9.206;2022-11-20T23:19:01;1.70;;;1.60;;
9819;SDS011;4949;48.482;9.206;2022-11-20T23:24:05;1.70;;;1.60;;
9819;SDS011;4949;48.482;9.206;2022-11-20T23:29:09;1.53;;;1.43;;
9819;SDS011;4949;48.482;9.206;2022-11-20T23:34:10;2.40;;;1.67;;
9819;SDS011;4949;48.482;9.206;2022-11-20T23:39:13;3.90;;;1.30;;
9819;SDS011;4949;48.482;9.206;2022-11-20T23:44:17;3.43;;;1.50;;
9819;SDS011;4949;48.482;9.206;2022-11-20T23:49:18;3.57;;;1.70;;
9819;SDS011;4949;48.482;9.206;2022-11-20T23:54:19;1.47;;;1.37;;
9819;SDS011;4949;48.482;9.206;2022-11-20T23:59:19;1.70;;;1.60;;
